sensor_id;sensor_type;location;lat;lon;timestamp;pressure;altitude;pressure_sealevel;temperature;humidity
13800;BME280;6971;50.028;9.258;2023-04-05T00:02:39;100122.56;;;-0.49;100.00
13800;BME280;6971;50.028;9.258;2023-04-05T00:07:39;100120.00;;;-0.43;100.00
13800;BME280;6971;50.028;9.258;2023-04-05T00:12:40;100111.38;;;-0.46;100.00
13800;BME280;6971;50.028;9.258;2023-04-05T00:17:40;100102.69;;;-0.56;100.00
13800;BME280;6971;50.028;9.258;2023-04-05T00:22:41;100098.34;;;-0.65;100.00
13800;BME280;6971;50.028;9.258;2023-04-05T00:27:43;100096.63;;;-0.72;100.00
13800;BME280;6971;50.028;9.258;2023-04-05T00:32:46;100094.00;;;-0.79;100.00
13800;BME280;6971;50.028;9.258;2023-04-05T00:37:46;100085.34;;;-0.85;99.41
13800;BME280;6971;50.028;9.258;2023-04-05T00:42:47;100089.63;;;-0.92;98.00
13800;BME280;6971;50.028;9.258;2023-04-05T00:47:47;100084.38;;;-1.12;94.29
13800;BME280;6971;50.028;9.258;2023-04-05T00:52:48;100088.66;;;-1.17;92.62
13800;BME280;6971;50.028;9.258;2023-04-05T00:57:49;100073.13;;;-1.21;92.02
13800;BME280;6971;50.028;9.258;2023-04-05T01:03:01;100079.97;;;-1.29;98.24
13800;BME280;6971;50.028;9.258;2023-04-05T01:08:16;100073.91;;;-1.39;100.00
13800;BME280;6971;50.028;9.258;2023-04-05T01:13:17;100064.34;;;-1.52;100.00
13800;BME280;6971;50.028;9.258;2023-04-05T01:18:17;100057.41;;;-1.58;100.00
13800;BME280;6971;50.028;9.258;2023-04-05T01:23:27;100058.22;;;-1.65;100.00
13800;BME280;6971;50.028;9.258;2023-04-05T01:29:02;100052.97;;;-1.78;100.00
13800;BME280;6971;50.028;9.258;2023-04-05T01:39:16;100051.19;;;-1.88;100.00
13800;BME280;6971;50.028;9.258;2023-04-05T01:44:19;100037.38;;;-1.95;100.00
13800;BME280;6971;50.028;9.258;2023-04-05T01:49:20;100041.66;;;-1.97;100.00
13800;BME280;6971;50.028;9.258;2023-04-05T01:54:20;100041.63;;;-2.00;100.00
13800;BME280;6971;50.028;9.258;2023-04-05T01:59:20;100045.00;;;-2.09;100.00
13800;BME280;6971;50.028;9.258;2023-04-05T02:04:21;100044.94;;;-2.18;100.00
13800;BME280;6971;50.028;9.258;2023-04-05T02:09:21;100044.94;;;-2.18;100.00
13800;BME280;6971;50.028;9.258;2023-04-05T02:14:25;100043.22;;;-2.19;100.00
13800;BME280;6971;50.028;9.258;2023-04-05T02:19:25;100043.81;;;-2.49;100.00
13800;BME280;6971;50.028;9.258;2023-04-05T02:24:26;100043.91;;;-2.39;100.00
13800;BME280;6971;50.028;9.258;2023-04-05T02:29:26;100041.22;;;-2.50;100.00
13800;BME280;6971;50.028;9.258;2023-04-05T02:34:26;100037.81;;;-2.47;100.00
13800;BME280;6971;50.028;9.258;2023-04-05T02:39:28;100034.13;;;-2.71;100.00
13800;BME280;6971;50.028;9.258;2023-04-05T02:44:28;100026.47;;;-2.65;100.00
13800;BME280;6971;50.028;9.258;2023-04-05T02:49:29;100024.75;;;-2.66;100.00
13800;BME280;6971;50.028;9.258;2023-04-05T02:54:29;100034.16;;;-2.70;100.00
13800;BME280;6971;50.028;9.258;2023-04-05T02:59:29;100028.00;;;-2.83;100.00
13800;BME280;6971;50.028;9.258;2023-04-05T03:04:30;100035.81;;;-2.77;100.00
13800;BME280;6971;50.028;9.258;2023-04-05T03:09:33;100033.97;;;-2.89;100.00
13800;BME280;6971;50.028;9.258;2023-04-05T03:14:33;100031.13;;;-3.12;100.00
13800;BME280;6971;50.028;9.258;2023-04-05T03:19:34;100026.75;;;-3.19;100.00
13800;BME280;6971;50.028;9.258;2023-04-05T03:24:34;100022.53;;;-3.09;100.00
13800;BME280;6971;50.028;9.258;2023-04-05T03:29:37;100019.91;;;-3.16;100.00
13800;BME280;6971;50.028;9.258;2023-04-05T03:34:37;100015.50;;;-3.26;100.00
13800;BME280;6971;50.028;9.258;2023-04-05T03:39:37;100009.47;;;-3.26;100.00
13800;BME280;6971;50.028;9.258;2023-04-05T03:44:38;100011.19;;;-3.25;100.00
13800;BME280;6971;50.028;9.258;2023-04-05T03:49:38;100012.66;;;-3.46;100.00
13800;BME280;6971;50.028;9.258;2023-04-05T03:54:38;100005.88;;;-3.41;100.00
13800;BME280;6971;50.028;9.258;2023-04-05T03:59:39;100004.03;;;-3.48;100.00
13800;BME280;6971;50.028;9.258;2023-04-05T04:04:40;99998.03;;;-3.47;100.00
13800;BME280;6971;50.028;9.258;2023-04-05T04:09:41;100004.00;;;-3.51;100.00
13800;BME280;6971;50.028;9.258;2023-04-05T04:14:42;100005.69;;;-3.55;100.00
13800;BME280;6971;50.028;9.258;2023-04-05T04:19:42;99996.78;;;-3.77;100.00
13800;BME280;6971;50.028;9.258;2023-04-05T04:24:42;100002.88;;;-3.71;100.00
13800;BME280;6971;50.028;9.258;2023-04-05T04:29:48;100000.34;;;-3.69;100.00
13800;BME280;6971;50.028;9.258;2023-04-05T04:34:48;100002.13;;;-3.63;100.00
13800;BME280;6971;50.028;9.258;2023-04-05T04:39:49;99997.44;;;-3.91;100.00
13800;BME280;6971;50.028;9.258;2023-04-05T04:44:51;99990.69;;;-3.84;100.00
13800;BME280;6971;50.028;9.258;2023-04-05T04:49:54;99993.41;;;-3.73;100.00
13800;BME280;6971;50.028;9.258;2023-04-05T04:54:56;99994.97;;;-3.85;100.00
13800;BME280;6971;50.028;9.258;2023-04-05T04:59:56;100000.19;;;-3.80;100.00
13800;BME280;6971;50.028;9.258;2023-04-05T05:04:57;99991.56;;;-3.84;100.00
13800;BME280;6971;50.028;9.258;2023-04-05T05:09:57;99987.19;;;-3.89;100.00
13800;BME280;6971;50.028;9.258;2023-04-05T05:14:57;100003.41;;;-3.95;100.00
13800;BME280;6971;50.028;9.258;2023-04-05T05:19:58;100008.34;;;-4.11;100.00
13800;BME280;6971;50.028;9.258;2023-04-05T05:24:59;99998.88;;;-4.12;100.00
13800;BME280;6971;50.028;9.258;2023-04-05T05:30:00;100010.31;;;-3.94;100.00
13800;BME280;6971;50.028;9.258;2023-04-05T05:35:00;100005.19;;;-3.91;100.00
13800;BME280;6971;50.028;9.258;2023-04-05T05:40:00;100001.91;;;-3.81;100.00
13800;BME280;6971;50.028;9.258;2023-04-05T05:45:03;100006.22;;;-3.80;100.00
13800;BME280;6971;50.028;9.258;2023-04-05T05:50:05;100004.50;;;-3.81;100.00
13800;BME280;6971;50.028;9.258;2023-04-05T05:55:06;100005.38;;;-3.77;100.00
13800;BME280;6971;50.028;9.258;2023-04-05T06:00:07;100014.88;;;-3.74;100.00
13800;BME280;6971;50.028;9.258;2023-04-05T06:05:09;100014.06;;;-3.70;100.00
13800;BME280;6971;50.028;9.258;2023-04-05T06:10:10;100021.03;;;-3.63;100.00
13800;BME280;6971;50.028;9.258;2023-04-05T06:15:11;100013.34;;;-3.61;100.00
13800;BME280;6971;50.028;9.258;2023-04-05T06:20:11;100019.47;;;-3.50;100.00
13800;BME280;6971;50.028;9.258;2023-04-05T06:25:12;100012.66;;;-3.46;100.00
13800;BME280;6971;50.028;9.258;2023-04-05T06:30:13;100018.88;;;-3.32;100.00
13800;BME280;6971;50.028;9.258;2023-04-05T06:35:13;100006.03;;;-3.25;100.00
13800;BME280;6971;50.028;9.258;2023-04-05T06:40:15;100011.31;;;-3.15;100.00
13800;BME280;6971;50.028;9.258;2023-04-05T06:45:16;100010.59;;;-3.01;100.00
13800;BME280;6971;50.028;9.258;2023-04-05T06:50:18;100011.63;;;-2.88;100.00
13800;BME280;6971;50.028;9.258;2023-04-05T06:55:18;100009.19;;;-2.71;100.00
13800;BME280;6971;50.028;9.258;2023-04-05T07:00:19;100011.13;;;-2.48;100.00
13800;BME280;6971;50.028;9.258;2023-04-05T07:05:19;100009.69;;;-2.10;100.00
13800;BME280;6971;50.028;9.258;2023-04-05T07:10:20;100007.50;;;-1.38;100.00
13800;BME280;6971;50.028;9.258;2023-04-05T07:15:20;100003.41;;;-0.74;94.99
13800;BME280;6971;50.028;9.258;2023-04-05T07:20:20;99999.13;;;-0.34;89.52
13800;BME280;6971;50.028;9.258;2023-04-05T07:25:21;99994.72;;;0.30;79.44
13800;BME280;6971;50.028;9.258;2023-04-05T07:30:21;100002.34;;;0.77;77.08
13800;BME280;6971;50.028;9.258;2023-04-05T07:35:21;99998.50;;;1.40;71.19
13800;BME280;6971;50.028;9.258;2023-04-05T07:40:22;100000.78;;;1.79;66.51
13800;BME280;6971;50.028;9.258;2023-04-05T07:45:22;100001.06;;;2.41;64.91
13800;BME280;6971;50.028;9.258;2023-04-05T07:50:22;100005.56;;;3.00;62.11
13800;BME280;6971;50.028;9.258;2023-04-05T07:55:22;99998.47;;;3.10;59.55
13800;BME280;6971;50.028;9.258;2023-04-05T08:00:23;100004.13;;;3.40;56.62
13800;BME280;6971;50.028;9.258;2023-04-05T08:05:23;100006.56;;;4.04;56.97
13800;BME280;6971;50.028;9.258;2023-04-05T08:10:24;100002.59;;;4.76;54.76
13800;BME280;6971;50.028;9.258;2023-04-05T08:15:27;100002.53;;;4.35;54.17
13800;BME280;6971;50.028;9.258;2023-04-05T08:20:27;99998.72;;;5.34;51.90
13800;BME280;6971;50.028;9.258;2023-04-05T08:25:27;99999.69;;;6.04;49.40
13800;BME280;6971;50.028;9.258;2023-04-05T08:30:28;99997.91;;;7.00;48.16
13800;BME280;6971;50.028;9.258;2023-04-05T08:35:28;99988.28;;;8.10;45.32
13800;BME280;6971;50.028;9.258;2023-04-05T08:45:46;99997.22;;;9.03;42.81
13800;BME280;6971;50.028;9.258;2023-04-05T08:50:49;99992.09;;;8.01;42.58
13800;BME280;6971;50.028;9.258;2023-04-05T08:55:54;99991.88;;;9.05;39.71
13800;BME280;6971;50.028;9.258;2023-04-05T09:00:56;99988.16;;;8.39;39.29
13800;BME280;6971;50.028;9.258;2023-04-05T09:05:58;99985.06;;;8.77;38.39
13800;BME280;6971;50.028;9.258;2023-04-05T09:10:59;99982.78;;;8.67;39.74
13800;BME280;6971;50.028;9.258;2023-04-05T09:16:00;99982.38;;;9.90;36.10
13800;BME280;6971;50.028;9.258;2023-04-05T09:21:04;99977.28;;;8.73;36.83
13800;BME280;6971;50.028;9.258;2023-04-05T09:26:18;99972.44;;;9.09;38.61
13800;BME280;6971;50.028;9.258;2023-04-05T09:31:33;99976.66;;;9.13;38.63
13800;BME280;6971;50.028;9.258;2023-04-05T09:36:34;99981.91;;;9.37;37.31
13800;BME280;6971;50.028;9.258;2023-04-05T09:41:35;99973.22;;;9.12;37.02
13800;BME280;6971;50.028;9.258;2023-04-05T09:46:35;99972.34;;;8.90;36.95
13800;BME280;6971;50.028;9.258;2023-04-05T09:51:38;99972.75;;;10.30;35.54
13800;BME280;6971;50.028;9.258;2023-04-05T09:56:40;99977.28;;;11.79;33.45
13800;BME280;6971;50.028;9.258;2023-04-05T10:01:52;99973.97;;;10.22;34.38
13800;BME280;6971;50.028;9.258;2023-04-05T10:06:52;99971.94;;;11.07;34.06
13800;BME280;6971;50.028;9.258;2023-04-05T10:11:53;99961.28;;;9.69;35.00
13800;BME280;6971;50.028;9.258;2023-04-05T10:22:15;99958.47;;;11.50;33.76
13800;BME280;6971;50.028;9.258;2023-04-05T10:27:22;99952.16;;;10.79;34.45
13800;BME280;6971;50.028;9.258;2023-04-05T10:37:42;99931.16;;;10.37;34.10
13800;BME280;6971;50.028;9.258;2023-04-05T10:42:47;99944.56;;;11.64;32.01
13800;BME280;6971;50.028;9.258;2023-04-05T10:47:53;99936.47;;;9.96;33.32
13800;BME280;6971;50.028;9.258;2023-04-05T10:52:55;99937.47;;;9.29;33.14
13800;BME280;6971;50.028;9.258;2023-04-05T10:57:57;99932.09;;;11.68;32.41
13800;BME280;6971;50.028;9.258;2023-04-05T11:02:57;99931.66;;;9.85;32.62
13800;BME280;6971;50.028;9.258;2023-04-05T11:08:06;99916.66;;;10.48;34.16
13800;BME280;6971;50.028;9.258;2023-04-05T11:13:07;99921.97;;;11.41;32.93
13800;BME280;6971;50.028;9.258;2023-04-05T11:23:21;99908.91;;;11.20;34.92
13800;BME280;6971;50.028;9.258;2023-04-05T11:33:53;99902.09;;;11.51;33.11
13800;BME280;6971;50.028;9.258;2023-04-05T11:44:17;99891.72;;;12.17;31.90
13800;BME280;6971;50.028;9.258;2023-04-05T11:49:21;99882.63;;;11.36;34.20
13800;BME280;6971;50.028;9.258;2023-04-05T11:54:32;99873.09;;;12.36;32.79
13800;BME280;6971;50.028;9.258;2023-04-05T11:59:34;99877.97;;;9.89;33.73
13800;BME280;6971;50.028;9.258;2023-04-05T12:04:35;99874.00;;;11.15;34.37
13800;BME280;6971;50.028;9.258;2023-04-05T12:10:00;99869.31;;;13.05;30.63
13800;BME280;6971;50.028;9.258;2023-04-05T12:15:02;99860.28;;;11.95;32.92
13800;BME280;6971;50.028;9.258;2023-04-05T12:20:03;99860.06;;;11.82;33.29
13800;BME280;6971;50.028;9.258;2023-04-05T12:25:05;99856.56;;;12.49;31.99
13800;BME280;6971;50.028;9.258;2023-04-05T12:30:12;99853.72;;;10.61;33.56
13800;BME280;6971;50.028;9.258;2023-04-05T12:35:19;99851.19;;;12.18;31.47
13800;BME280;6971;50.028;9.258;2023-04-05T12:40:21;99842.56;;;11.63;31.18
13800;BME280;6971;50.028;9.258;2023-04-05T12:45:22;99822.94;;;12.19;32.02
13800;BME280;6971;50.028;9.258;2023-04-05T12:50:27;99819.44;;;11.15;31.85
13800;BME280;6971;50.028;9.258;2023-04-05T12:55:44;99821.81;;;11.73;31.40
13800;BME280;6971;50.028;9.258;2023-04-05T13:00:47;99813.28;;;10.79;34.38
13800;BME280;6971;50.028;9.258;2023-04-05T13:05:47;99801.81;;;10.05;34.82
13800;BME280;6971;50.028;9.258;2023-04-05T13:10:48;99793.28;;;10.93;33.28
13800;BME280;6971;50.028;9.258;2023-04-05T13:15:49;99800.88;;;11.34;33.63
13800;BME280;6971;50.028;9.258;2023-04-05T13:20:49;99785.25;;;10.40;34.89
13800;BME280;6971;50.028;9.258;2023-04-05T13:25:50;99781.16;;;10.71;34.64
13800;BME280;6971;50.028;9.258;2023-04-05T13:30:50;99782.50;;;10.24;34.98
13800;BME280;6971;50.028;9.258;2023-04-05T13:35:51;99778.19;;;10.60;34.15
13800;BME280;6971;50.028;9.258;2023-04-05T13:40:51;99758.88;;;9.44;36.56
13800;BME280;6971;50.028;9.258;2023-04-05T13:45:52;99759.78;;;10.95;34.43
13800;BME280;6971;50.028;9.258;2023-04-05T13:50:52;99767.97;;;10.53;34.37
13800;BME280;6971;50.028;9.258;2023-04-05T13:55:52;99759.97;;;10.92;34.88
13800;BME280;6971;50.028;9.258;2023-04-05T14:00:53;99757.84;;;10.25;33.81
13800;BME280;6971;50.028;9.258;2023-04-05T14:05:53;99760.16;;;9.75;34.97
13800;BME280;6971;50.028;9.258;2023-04-05T14:10:53;99753.00;;;10.35;33.46
13800;BME280;6971;50.028;9.258;2023-04-05T14:15:54;99751.03;;;10.01;34.18
13800;BME280;6971;50.028;9.258;2023-04-05T14:20:55;99748.34;;;10.03;33.70
13800;BME280;6971;50.028;9.258;2023-04-05T14:25:55;99747.69;;;10.36;32.99
13800;BME280;6971;50.028;9.258;2023-04-05T14:30:56;99736.72;;;10.26;33.44
13800;BME280;6971;50.028;9.258;2023-04-05T14:35:57;99733.78;;;10.32;32.89
13800;BME280;6971;50.028;9.258;2023-04-05T14:40:58;99727.66;;;10.69;34.41
13800;BME280;6971;50.028;9.258;2023-04-05T14:45:58;99729.50;;;10.30;32.88
13800;BME280;6971;50.028;9.258;2023-04-05T14:50:59;99720.22;;;9.25;33.65
13800;BME280;6971;50.028;9.258;2023-04-05T14:55:59;99717.13;;;9.36;33.13
13800;BME280;6971;50.028;9.258;2023-04-05T15:01:00;99706.75;;;9.33;33.57
13800;BME280;6971;50.028;9.258;2023-04-05T15:06:00;99707.03;;;8.85;34.13
13800;BME280;6971;50.028;9.258;2023-04-05T15:11:03;99717.16;;;9.74;33.75
13800;BME280;6971;50.028;9.258;2023-04-05T15:16:04;99710.47;;;9.67;33.45
13800;BME280;6971;50.028;9.258;2023-04-05T15:21:05;99702.91;;;9.40;33.10
13800;BME280;6971;50.028;9.258;2023-04-05T15:26:06;99704.47;;;9.44;34.24
13800;BME280;6971;50.028;9.258;2023-04-05T15:31:06;99703.53;;;9.26;32.74
13800;BME280;6971;50.028;9.258;2023-04-05T15:36:07;99702.50;;;9.69;33.35
13800;BME280;6971;50.028;9.258;2023-04-05T15:41:07;99701.19;;;9.39;33.22
13800;BME280;6971;50.028;9.258;2023-04-05T15:46:08;99700.94;;;9.45;33.47
13800;BME280;6971;50.028;9.258;2023-04-05T15:51:08;99697.91;;;9.55;34.28
13800;BME280;6971;50.028;9.258;2023-04-05T15:56:09;99696.44;;;9.47;34.98
13800;BME280;6971;50.028;9.258;2023-04-05T16:01:09;99697.88;;;9.35;34.62
13800;BME280;6971;50.028;9.258;2023-04-05T16:06:10;99687.97;;;9.40;34.66
13800;BME280;6971;50.028;9.258;2023-04-05T16:11:10;99686.22;;;9.41;34.29
13800;BME280;6971;50.028;9.258;2023-04-05T16:16:11;99681.66;;;9.05;34.02
13800;BME280;6971;50.028;9.258;2023-04-05T16:21:11;99681.59;;;9.06;34.06
13800;BME280;6971;50.028;9.258;2023-04-05T16:26:13;99685.53;;;9.17;34.78
13800;BME280;6971;50.028;9.258;2023-04-05T16:31:13;99686.78;;;9.08;34.98
13800;BME280;6971;50.028;9.258;2023-04-05T16:36:14;99684.16;;;8.87;35.26
13800;BME280;6971;50.028;9.258;2023-04-05T16:41:15;99686.06;;;9.04;35.60
13800;BME280;6971;50.028;9.258;2023-04-05T16:46:15;99678.66;;;9.14;36.31
13800;BME280;6971;50.028;9.258;2023-04-05T16:51:16;99680.69;;;8.86;35.35
13800;BME280;6971;50.028;9.258;2023-04-05T16:56:16;99672.81;;;8.86;36.78
13800;BME280;6971;50.028;9.258;2023-04-05T17:01:17;99680.69;;;8.43;37.85
13800;BME280;6971;50.028;9.258;2023-04-05T17:06:17;99679.50;;;8.30;37.17
13800;BME280;6971;50.028;9.258;2023-04-05T17:11:17;99680.41;;;8.06;36.84
13800;BME280;6971;50.028;9.258;2023-04-05T17:16:18;99682.63;;;7.93;38.88
13800;BME280;6971;50.028;9.258;2023-04-05T17:21:18;99681.66;;;7.74;38.18
13800;BME280;6971;50.028;9.258;2023-04-05T17:26:19;99686.63;;;7.57;40.87
13800;BME280;6971;50.028;9.258;2023-04-05T17:31:19;99682.13;;;7.37;45.09
13800;BME280;6971;50.028;9.258;2023-04-05T17:36:20;99685.63;;;7.12;48.96
13800;BME280;6971;50.028;9.258;2023-04-05T17:41:20;99692.34;;;6.69;54.72
13800;BME280;6971;50.028;9.258;2023-04-05T17:46:21;99685.09;;;6.23;57.74
13800;BME280;6971;50.028;9.258;2023-04-05T17:51:21;99695.50;;;5.66;60.59
13800;BME280;6971;50.028;9.258;2023-04-05T17:56:21;99692.16;;;5.30;63.66
13800;BME280;6971;50.028;9.258;2023-04-05T18:01:22;99682.88;;;4.87;67.38
13800;BME280;6971;50.028;9.258;2023-04-05T18:06:22;99686.50;;;4.46;70.75
13800;BME280;6971;50.028;9.258;2023-04-05T18:11:22;99685.53;;;4.14;73.13
13800;BME280;6971;50.028;9.258;2023-04-05T18:16:24;99693.88;;;3.90;75.07
13800;BME280;6971;50.028;9.258;2023-04-05T18:21:24;99703.28;;;3.57;76.91
13800;BME280;6971;50.028;9.258;2023-04-05T18:26:25;99704.63;;;3.32;78.70
13800;BME280;6971;50.028;9.258;2023-04-05T18:31:25;99705.09;;;3.06;80.87
13800;BME280;6971;50.028;9.258;2023-04-05T18:36:26;99701.19;;;2.81;82.28
13800;BME280;6971;50.028;9.258;2023-04-05T18:41:26;99709.50;;;2.52;83.37
13800;BME280;6971;50.028;9.258;2023-04-05T18:46:27;99706.41;;;2.31;85.15
13800;BME280;6971;50.028;9.258;2023-04-05T18:51:27;99717.16;;;2.06;85.47
13800;BME280;6971;50.028;9.258;2023-04-05T18:56:30;99720.72;;;1.97;86.81
13800;BME280;6971;50.028;9.258;2023-04-05T19:01:30;99726.28;;;1.69;87.03
13800;BME280;6971;50.028;9.258;2023-04-05T19:06:31;99728.13;;;1.61;88.67
13800;BME280;6971;50.028;9.258;2023-04-05T19:11:31;99732.75;;;1.35;87.59
13800;BME280;6971;50.028;9.258;2023-04-05T19:16:32;99730.25;;;1.29;88.46
13800;BME280;6971;50.028;9.258;2023-04-05T19:21:32;99737.28;;;1.17;90.09
13800;BME280;6971;50.028;9.258;2023-04-05T19:26:32;99738.28;;;1.02;90.72
13800;BME280;6971;50.028;9.258;2023-04-05T19:31:34;99742.75;;;0.88;91.36
13800;BME280;6971;50.028;9.258;2023-04-05T19:36:35;99738.63;;;0.63;93.15
13800;BME280;6971;50.028;9.258;2023-04-05T19:41:36;99738.66;;;0.59;93.41
13800;BME280;6971;50.028;9.258;2023-04-05T19:46:38;99740.44;;;0.50;94.64
13800;BME280;6971;50.028;9.258;2023-04-05T19:51:40;99745.69;;;0.46;95.65
13800;BME280;6971;50.028;9.258;2023-04-05T19:56:41;99742.28;;;0.36;96.39
13800;BME280;6971;50.028;9.258;2023-04-05T20:01:41;99747.63;;;0.14;96.90
13800;BME280;6971;50.028;9.258;2023-04-05T20:06:47;99745.09;;;0.05;99.33
13800;BME280;6971;50.028;9.258;2023-04-05T20:11:56;99747.72;;;0.00;99.18
13800;BME280;6971;50.028;9.258;2023-04-05T20:16:57;99748.59;;;-0.07;100.00
13800;BME280;6971;50.028;9.258;2023-04-05T20:22:01;99752.13;;;-0.24;100.00
13800;BME280;6971;50.028;9.258;2023-04-05T20:27:02;99750.41;;;-0.28;100.00
13800;BME280;6971;50.028;9.258;2023-04-05T20:32:04;99742.72;;;-0.45;100.00
13800;BME280;6971;50.028;9.258;2023-04-05T20:37:06;99723.72;;;-0.44;100.00
13800;BME280;6971;50.028;9.258;2023-04-05T20:42:06;99735.00;;;-0.59;100.00
13800;BME280;6971;50.028;9.258;2023-04-05T20:47:08;99731.59;;;-0.71;100.00
13800;BME280;6971;50.028;9.258;2023-04-05T20:52:09;99727.28;;;-0.78;100.00
13800;BME280;6971;50.028;9.258;2023-04-05T20:57:10;99738.50;;;-0.85;100.00
13800;BME280;6971;50.028;9.258;2023-04-05T21:02:11;99726.47;;;-0.96;100.00
13800;BME280;6971;50.028;9.258;2023-04-05T21:07:11;99723.00;;;-0.96;100.00
13800;BME280;6971;50.028;9.258;2023-04-05T21:12:11;99728.22;;;-1.01;100.00
13800;BME280;6971;50.028;9.258;2023-04-05T21:17:12;99724.75;;;-1.05;100.00
13800;BME280;6971;50.028;9.258;2023-04-05T21:22:12;99730.81;;;-1.09;100.00
13800;BME280;6971;50.028;9.258;2023-04-05T21:27:12;99719.63;;;-1.19;100.00
13800;BME280;6971;50.028;9.258;2023-04-05T21:32:13;99735.13;;;-1.12;100.00
13800;BME280;6971;50.028;9.258;2023-04-05T21:37:13;99735.97;;;-1.27;100.00
13800;BME280;6971;50.028;9.258;2023-04-05T21:42:13;99728.25;;;-1.32;100.00
13800;BME280;6971;50.028;9.258;2023-04-05T21:47:14;99735.13;;;-1.40;100.00
13800;BME280;6971;50.028;9.258;2023-04-05T21:52:16;99739.44;;;-1.42;100.00
13800;BME280;6971;50.028;9.258;2023-04-05T21:57:17;99736.84;;;-1.42;100.00
13800;BME280;6971;50.028;9.258;2023-04-05T22:02:17;99738.59;;;-1.55;100.00
13800;BME280;6971;50.028;9.258;2023-04-05T22:07:17;99734.25;;;-1.50;100.00
13800;BME280;6971;50.028;9.258;2023-04-05T22:12:18;99728.22;;;-1.60;100.00
13800;BME280;6971;50.028;9.258;2023-04-05T22:17:20;99726.50;;;-1.61;100.00
13800;BME280;6971;50.028;9.258;2023-04-05T22:22:20;99735.13;;;-1.72;100.00
13800;BME280;6971;50.028;9.258;2023-04-05T22:27:21;99738.56;;;-1.74;100.00
13800;BME280;6971;50.028;9.258;2023-04-05T22:32:21;99737.69;;;-1.76;100.00
13800;BME280;6971;50.028;9.258;2023-04-05T22:37:21;99734.25;;;-1.77;100.00
13800;BME280;6971;50.028;9.258;2023-04-05T22:42:22;99742.84;;;-1.82;100.00
13800;BME280;6971;50.028;9.258;2023-04-05T22:47:22;99735.09;;;-1.78;100.00
13800;BME280;6971;50.028;9.258;2023-04-05T22:52:22;99734.22;;;-1.89;100.00
13800;BME280;6971;50.028;9.258;2023-04-05T22:57:23;99734.22;;;-1.91;100.00
13800;BME280;6971;50.028;9.258;2023-04-05T23:02:23;99739.38;;;-1.99;100.00
13800;BME280;6971;50.028;9.258;2023-04-05T23:07:24;99740.22;;;-1.97;100.00
13800;BME280;6971;50.028;9.258;2023-04-05T23:12:24;99735.06;;;-1.98;100.00
13800;BME280;6971;50.028;9.258;2023-04-05T23:17:25;99727.31;;;-2.11;100.00
13800;BME280;6971;50.028;9.258;2023-04-05T23:22:25;99731.59;;;-2.11;100.00
13800;BME280;6971;50.028;9.258;2023-04-05T23:27:26;99724.69;;;-2.21;100.00
13800;BME280;6971;50.028;9.258;2023-04-05T23:32:26;99728.13;;;-2.26;100.00
13800;BME280;6971;50.028;9.258;2023-04-05T23:37:26;99726.41;;;-2.20;100.00
13800;BME280;6971;50.028;9.258;2023-04-05T23:42:29;99724.66;;;-2.26;100.00
13800;BME280;6971;50.028;9.258;2023-04-05T23:47:29;99730.66;;;-2.32;100.00
13800;BME280;6971;50.028;9.258;2023-04-05T23:52:30;99722.91;;;-2.33;100.00
13800;BME280;6971;50.028;9.258;2023-04-05T23:57:30;99720.34;;;-2.35;100.00
